sensor_id;sensor_type;location;lat;lon;timestamp;P1;durP1;ratioP1;P2;durP2;ratioP2
56343;SDS011;42245;42.058;24.700;2022-11-18T04:28:05;11.82;;;6.93;;
56343;SDS011;42245;42.058;24.700;2022-11-18T04:30:31;7.13;;;5.00;;
56343;SDS011;42245;42.058;24.700;2022-11-18T04:32:57;7.30;;;4.82;;
56343;SDS011;42245;42.058;24.700;2022-11-18T04:35:22;8.77;;;6.40;;
56343;SDS011;42245;42.058;24.700;2022-11-18T04:37:48;14.85;;;8.02;;
56343;SDS011;42245;42.058;24.700;2022-11-18T04:40:13;15.35;;;7.18;;
56343;SDS011;42245;42.058;24.700;2022-11-18T04:42:39;16.73;;;6.70;;
56343;SDS011;42245;42.058;24.700;2022-11-18T04:45:04;8.40;;;5.80;;
56343;SDS011;42245;42.058;24.700;2022-11-18T04:47:31;12.05;;;6.35;;
56343;SDS011;42245;42.058;24.700;2022-11-18T04:49:56;13.52;;;6.07;;
56343;SDS011;42245;42.058;24.700;2022-11-18T04:52:21;8.90;;;5.65;;
56343;SDS011;42245;42.058;24.700;2022-11-18T04:54:47;9.05;;;6.03;;
56343;SDS011;42245;42.058;24.700;2022-11-18T04:57:12;11.57;;;6.30;;
56343;SDS011;42245;42.058;24.700;2022-11-18T04:59:38;8.45;;;5.65;;
56343;SDS011;42245;42.058;24.700;2022-11-18T05:02:03;8.95;;;5.90;;
56343;SDS011;42245;42.058;24.700;2022-11-18T05:04:31;8.38;;;6.18;;
56343;SDS011;42245;42.058;24.700;2022-11-18T05:06:57;9.48;;;5.80;;
56343;SDS011;42245;42.058;24.700;2022-11-18T05:09:24;10.48;;;6.13;;
56343;SDS011;42245;42.058;24.700;2022-11-18T05:11:49;9.57;;;6.78;;
56343;SDS011;42245;42.058;24.700;2022-11-18T05:14:33;15.82;;;7.40;;
56343;SDS011;42245;42.058;24.700;2022-11-18T05:17:01;13.38;;;8.63;;
56343;SDS011;42245;42.058;24.700;2022-11-18T05:19:27;15.90;;;10.68;;
56343;SDS011;42245;42.058;24.700;2022-11-18T05:21:53;15.00;;;10.70;;
56343;SDS011;42245;42.058;24.700;2022-11-18T05:24:18;16.02;;;11.27;;
56343;SDS011;42245;42.058;24.700;2022-11-18T05:26:44;14.73;;;8.90;;
56343;SDS011;42245;42.058;24.700;2022-11-18T05:29:10;19.25;;;8.18;;
56343;SDS011;42245;42.058;24.700;2022-11-18T05:31:35;14.95;;;9.05;;
56343;SDS011;42245;42.058;24.700;2022-11-18T05:34:00;12.63;;;7.88;;
56343;SDS011;42245;42.058;24.700;2022-11-18T05:36:26;13.38;;;7.78;;
56343;SDS011;42245;42.058;24.700;2022-11-18T05:38:51;11.85;;;7.18;;
56343;SDS011;42245;42.058;24.700;2022-11-18T05:41:16;15.57;;;7.88;;
56343;SDS011;42245;42.058;24.700;2022-11-18T05:44:01;25.70;;;14.23;;
56343;SDS011;42245;42.058;24.700;2022-11-18T05:46:27;67.15;;;19.70;;
56343;SDS011;42245;42.058;24.700;2022-11-18T05:48:53;59.15;;;35.85;;
56343;SDS011;42245;42.058;24.700;2022-11-18T05:51:19;224.85;;;30.35;;
56343;SDS011;42245;42.058;24.700;2022-11-18T05:53:45;24.58;;;11.35;;
56343;SDS011;42245;42.058;24.700;2022-11-18T05:56:16;12.43;;;6.95;;
56343;SDS011;42245;42.058;24.700;2022-11-18T05:58:48;13.50;;;6.93;;
56343;SDS011;42245;42.058;24.700;2022-11-18T06:01:15;12.65;;;7.15;;
56343;SDS011;42245;42.058;24.700;2022-11-18T06:03:43;12.77;;;7.85;;
56343;SDS011;42245;42.058;24.700;2022-11-18T06:06:08;9.48;;;6.95;;
56343;SDS011;42245;42.058;24.700;2022-11-18T06:08:36;10.73;;;7.05;;
56343;SDS011;42245;42.058;24.700;2022-11-18T06:11:04;66.75;;;35.05;;
56343;SDS011;42245;42.058;24.700;2022-11-18T06:13:33;37.63;;;22.30;;
56343;SDS011;42245;42.058;24.700;2022-11-18T06:16:06;34.45;;;18.30;;
56343;SDS011;42245;42.058;24.700;2022-11-18T06:18:31;23.40;;;14.43;;
56343;SDS011;42245;42.058;24.700;2022-11-18T06:20:58;26.33;;;15.35;;
56343;SDS011;42245;42.058;24.700;2022-11-18T06:23:26;52.08;;;31.63;;
56343;SDS011;42245;42.058;24.700;2022-11-18T06:25:53;38.33;;;24.48;;
56343;SDS011;42245;42.058;24.700;2022-11-18T06:28:19;40.20;;;25.10;;
56343;SDS011;42245;42.058;24.700;2022-11-18T06:30:45;43.30;;;24.05;;
56343;SDS011;42245;42.058;24.700;2022-11-18T06:33:11;28.40;;;18.75;;
56343;SDS011;42245;42.058;24.700;2022-11-18T06:35:36;21.50;;;13.25;;
56343;SDS011;42245;42.058;24.700;2022-11-18T06:38:01;61.03;;;32.13;;
56343;SDS011;42245;42.058;24.700;2022-11-18T06:40:27;45.10;;;31.65;;
56343;SDS011;42245;42.058;24.700;2022-11-18T06:42:52;19.90;;;11.20;;
56343;SDS011;42245;42.058;24.700;2022-11-18T06:45:36;19.08;;;13.13;;
56343;SDS011;42245;42.058;24.700;2022-11-18T06:48:02;15.90;;;11.30;;
56343;SDS011;42245;42.058;24.700;2022-11-18T06:50:28;21.20;;;13.20;;
56343;SDS011;42245;42.058;24.700;2022-11-18T06:52:53;15.98;;;9.57;;
56343;SDS011;42245;42.058;24.700;2022-11-18T06:55:19;20.73;;;10.43;;
56343;SDS011;42245;42.058;24.700;2022-11-18T06:57:44;14.32;;;9.60;;
56343;SDS011;42245;42.058;24.700;2022-11-18T07:00:10;15.63;;;9.55;;
56343;SDS011;42245;42.058;24.700;2022-11-18T07:02:36;15.20;;;11.02;;
56343;SDS011;42245;42.058;24.700;2022-11-18T07:05:02;24.67;;;14.10;;
56343;SDS011;42245;42.058;24.700;2022-11-18T07:07:28;40.92;;;25.35;;
56343;SDS011;42245;42.058;24.700;2022-11-18T07:09:53;46.60;;;27.40;;
56343;SDS011;42245;42.058;24.700;2022-11-18T07:12:18;138.15;;;39.42;;
56343;SDS011;42245;42.058;24.700;2022-11-18T07:14:44;146.85;;;34.15;;
56343;SDS011;42245;42.058;24.700;2022-11-18T07:17:09;673.42;;;35.75;;
56343;SDS011;42245;42.058;24.700;2022-11-18T07:19:34;401.45;;;31.45;;
56343;SDS011;42245;42.058;24.700;2022-11-18T07:22:00;67.65;;;29.48;;
56343;SDS011;42245;42.058;24.700;2022-11-18T07:24:25;90.10;;;28.60;;
56343;SDS011;42245;42.058;24.700;2022-11-18T07:26:54;89.88;;;32.40;;
56343;SDS011;42245;42.058;24.700;2022-11-18T07:29:19;57.97;;;32.70;;
56343;SDS011;42245;42.058;24.700;2022-11-18T07:31:44;55.65;;;33.47;;
56343;SDS011;42245;42.058;24.700;2022-11-18T07:34:11;55.95;;;32.03;;
56343;SDS011;42245;42.058;24.700;2022-11-18T07:36:36;61.30;;;35.08;;
56343;SDS011;42245;42.058;24.700;2022-11-18T07:39:02;135.20;;;66.05;;
56343;SDS011;42245;42.058;24.700;2022-11-18T07:41:29;66.03;;;30.92;;
56343;SDS011;42245;42.058;24.700;2022-11-18T07:43:56;425.83;;;31.60;;
56343;SDS011;42245;42.058;24.700;2022-11-18T07:46:23;89.40;;;22.00;;
56343;SDS011;42245;42.058;24.700;2022-11-18T07:48:50;436.75;;;26.73;;
56343;SDS011;42245;42.058;24.700;2022-11-18T07:51:18;224.75;;;21.70;;
56343;SDS011;42245;42.058;24.700;2022-11-18T07:53:44;168.63;;;23.85;;
56343;SDS011;42245;42.058;24.700;2022-11-18T07:56:10;203.30;;;24.50;;
56343;SDS011;42245;42.058;24.700;2022-11-18T07:58:36;80.25;;;24.83;;
56343;SDS011;42245;42.058;24.700;2022-11-18T08:01:08;132.65;;;26.73;;
56343;SDS011;42245;42.058;24.700;2022-11-18T08:03:36;77.50;;;31.52;;
56343;SDS011;42245;42.058;24.700;2022-11-18T08:06:01;60.15;;;30.27;;
56343;SDS011;42245;42.058;24.700;2022-11-18T08:08:28;85.85;;;34.03;;
56343;SDS011;42245;42.058;24.700;2022-11-18T08:10:54;66.97;;;31.95;;
56343;SDS011;42245;42.058;24.700;2022-11-18T08:13:21;83.53;;;28.90;;
56343;SDS011;42245;42.058;24.700;2022-11-18T08:15:47;72.93;;;30.58;;
56343;SDS011;42245;42.058;24.700;2022-11-18T08:18:12;86.25;;;30.45;;
56343;SDS011;42245;42.058;24.700;2022-11-18T08:20:37;66.93;;;31.15;;
56343;SDS011;42245;42.058;24.700;2022-11-18T08:23:03;62.72;;;31.27;;
56343;SDS011;42245;42.058;24.700;2022-11-18T08:25:31;67.35;;;33.13;;
56343;SDS011;42245;42.058;24.700;2022-11-18T08:27:56;55.05;;;29.58;;
56343;SDS011;42245;42.058;24.700;2022-11-18T08:30:22;58.15;;;30.67;;
56343;SDS011;42245;42.058;24.700;2022-11-18T08:32:47;63.38;;;38.65;;
56343;SDS011;42245;42.058;24.700;2022-11-18T08:35:12;50.03;;;28.55;;
56343;SDS011;42245;42.058;24.700;2022-11-18T08:37:38;67.72;;;40.80;;
56343;SDS011;42245;42.058;24.700;2022-11-18T08:40:03;51.42;;;32.17;;
56343;SDS011;42245;42.058;24.700;2022-11-18T08:42:30;46.72;;;27.52;;
56343;SDS011;42245;42.058;24.700;2022-11-18T08:44:56;46.53;;;27.52;;
56343;SDS011;42245;42.058;24.700;2022-11-18T08:47:21;39.70;;;23.92;;
56343;SDS011;42245;42.058;24.700;2022-11-18T08:49:46;39.17;;;23.67;;
56343;SDS011;42245;42.058;24.700;2022-11-18T08:52:12;39.25;;;24.70;;
56343;SDS011;42245;42.058;24.700;2022-11-18T08:54:37;39.03;;;24.73;;
56343;SDS011;42245;42.058;24.700;2022-11-18T08:57:03;36.03;;;22.10;;
56343;SDS011;42245;42.058;24.700;2022-11-18T08:59:28;36.72;;;22.75;;
56343;SDS011;42245;42.058;24.700;2022-11-18T09:01:53;43.25;;;25.02;;
56343;SDS011;42245;42.058;24.700;2022-11-18T09:04:19;49.67;;;28.02;;
56343;SDS011;42245;42.058;24.700;2022-11-18T09:06:44;49.35;;;29.05;;
56343;SDS011;42245;42.058;24.700;2022-11-18T09:09:09;48.28;;;29.58;;
56343;SDS011;42245;42.058;24.700;2022-11-18T09:11:36;59.47;;;33.97;;
56343;SDS011;42245;42.058;24.700;2022-11-18T09:14:02;52.03;;;30.08;;
56343;SDS011;42245;42.058;24.700;2022-11-18T09:16:28;47.00;;;28.15;;
56343;SDS011;42245;42.058;24.700;2022-11-18T09:18:55;46.28;;;27.92;;
56343;SDS011;42245;42.058;24.700;2022-11-18T09:21:21;41.35;;;25.17;;
56343;SDS011;42245;42.058;24.700;2022-11-18T09:23:47;41.50;;;26.00;;
56343;SDS011;42245;42.058;24.700;2022-11-18T09:26:13;43.10;;;26.30;;
56343;SDS011;42245;42.058;24.700;2022-11-18T09:28:41;41.92;;;25.98;;
56343;SDS011;42245;42.058;24.700;2022-11-18T09:31:10;33.55;;;21.63;;
56343;SDS011;42245;42.058;24.700;2022-11-18T09:33:37;39.65;;;24.67;;
56343;SDS011;42245;42.058;24.700;2022-11-18T09:36:04;54.35;;;31.20;;
56343;SDS011;42245;42.058;24.700;2022-11-18T09:38:30;42.42;;;26.23;;
56343;SDS011;42245;42.058;24.700;2022-11-18T09:46:19;49.35;;;28.10;;
56343;SDS011;42245;42.058;24.700;2022-11-18T09:49:10;55.13;;;30.45;;
56343;SDS011;42245;42.058;24.700;2022-11-18T09:51:40;63.17;;;32.92;;
56343;SDS011;42245;42.058;24.700;2022-11-18T09:54:09;64.43;;;33.70;;
56343;SDS011;42245;42.058;24.700;2022-11-18T09:56:36;60.50;;;33.72;;
56343;SDS011;42245;42.058;24.700;2022-11-18T09:59:02;72.50;;;36.60;;
56343;SDS011;42245;42.058;24.700;2022-11-18T10:01:28;67.72;;;37.35;;
56343;SDS011;42245;42.058;24.700;2022-11-18T10:03:53;72.80;;;35.58;;
56343;SDS011;42245;42.058;24.700;2022-11-18T10:11:33;64.75;;;35.20;;
56343;SDS011;42245;42.058;24.700;2022-11-18T10:22:28;79.25;;;39.03;;
56343;SDS011;42245;42.058;24.700;2022-11-18T10:24:58;83.05;;;40.25;;
56343;SDS011;42245;42.058;24.700;2022-11-18T10:27:33;97.28;;;43.05;;
56343;SDS011;42245;42.058;24.700;2022-11-18T10:30:06;87.13;;;42.00;;
56343;SDS011;42245;42.058;24.700;2022-11-18T10:32:52;80.53;;;40.65;;
56343;SDS011;42245;42.058;24.700;2022-11-18T10:40:39;80.90;;;38.55;;
56343;SDS011;42245;42.058;24.700;2022-11-18T10:43:09;79.68;;;40.72;;
56343;SDS011;42245;42.058;24.700;2022-11-18T10:45:34;96.32;;;42.55;;
56343;SDS011;42245;42.058;24.700;2022-11-18T10:48:01;82.03;;;41.40;;
56343;SDS011;42245;42.058;24.700;2022-11-18T10:50:37;84.88;;;40.80;;
56343;SDS011;42245;42.058;24.700;2022-11-18T10:53:34;82.10;;;41.30;;
56343;SDS011;42245;42.058;24.700;2022-11-18T10:58:31;67.10;;;36.47;;
56343;SDS011;42245;42.058;24.700;2022-11-18T11:03:57;85.20;;;42.22;;
56343;SDS011;42245;42.058;24.700;2022-11-18T11:06:34;87.25;;;44.28;;
56343;SDS011;42245;42.058;24.700;2022-11-18T11:14:50;110.22;;;52.00;;
56343;SDS011;42245;42.058;24.700;2022-11-18T11:17:18;116.22;;;55.50;;
56343;SDS011;42245;42.058;24.700;2022-11-18T11:22:15;130.70;;;58.72;;
56343;SDS011;42245;42.058;24.700;2022-11-18T11:24:41;135.63;;;58.00;;
56343;SDS011;42245;42.058;24.700;2022-11-18T11:30:15;145.98;;;61.22;;
56343;SDS011;42245;42.058;24.700;2022-11-18T11:32:54;139.63;;;59.40;;
56343;SDS011;42245;42.058;24.700;2022-11-18T11:35:26;146.70;;;57.97;;
56343;SDS011;42245;42.058;24.700;2022-11-18T11:37:55;142.05;;;59.50;;
56343;SDS011;42245;42.058;24.700;2022-11-18T11:46:34;134.38;;;57.70;;
56343;SDS011;42245;42.058;24.700;2022-11-18T11:49:09;138.25;;;60.05;;
56343;SDS011;42245;42.058;24.700;2022-11-18T12:00:11;213.52;;;60.47;;
56343;SDS011;42245;42.058;24.700;2022-11-18T12:05:40;150.95;;;58.28;;
56343;SDS011;42245;42.058;24.700;2022-11-18T12:08:20;149.52;;;58.70;;
56343;SDS011;42245;42.058;24.700;2022-11-18T12:10:49;152.90;;;59.10;;
56343;SDS011;42245;42.058;24.700;2022-11-18T12:16:03;165.02;;;61.30;;
56343;SDS011;42245;42.058;24.700;2022-11-18T12:21:05;179.15;;;68.32;;
56343;SDS011;42245;42.058;24.700;2022-11-18T12:23:31;175.65;;;65.82;;
56343;SDS011;42245;42.058;24.700;2022-11-18T12:26:05;189.20;;;64.82;;
56343;SDS011;42245;42.058;24.700;2022-11-18T12:28:40;190.43;;;64.45;;
56343;SDS011;42245;42.058;24.700;2022-11-18T12:36:30;179.35;;;62.08;;
56343;SDS011;42245;42.058;24.700;2022-11-18T12:41:59;197.35;;;72.30;;
56343;SDS011;42245;42.058;24.700;2022-11-18T12:44:45;208.95;;;77.30;;
56343;SDS011;42245;42.058;24.700;2022-11-18T12:47:13;232.57;;;80.47;;
56343;SDS011;42245;42.058;24.700;2022-11-18T12:54:57;222.18;;;63.65;;
56343;SDS011;42245;42.058;24.700;2022-11-18T12:57:28;197.70;;;67.15;;
56343;SDS011;42245;42.058;24.700;2022-11-18T12:59:55;534.88;;;77.82;;
56343;SDS011;42245;42.058;24.700;2022-11-18T13:07:58;273.02;;;75.47;;
56343;SDS011;42245;42.058;24.700;2022-11-18T13:10:43;365.70;;;70.10;;
56343;SDS011;42245;42.058;24.700;2022-11-18T13:13:18;277.50;;;65.40;;
56343;SDS011;42245;42.058;24.700;2022-11-18T13:15:47;405.08;;;78.10;;
56343;SDS011;42245;42.058;24.700;2022-11-18T13:18:31;653.92;;;72.40;;
56343;SDS011;42245;42.058;24.700;2022-11-18T13:20:57;488.67;;;70.60;;
56343;SDS011;42245;42.058;24.700;2022-11-18T13:23:44;469.65;;;69.28;;
56343;SDS011;42245;42.058;24.700;2022-11-18T13:26:28;1045.68;;;89.85;;
56343;SDS011;42245;42.058;24.700;2022-11-18T13:29:05;654.20;;;85.28;;
56343;SDS011;42245;42.058;24.700;2022-11-18T13:34:24;370.20;;;75.95;;
56343;SDS011;42245;42.058;24.700;2022-11-18T13:36:51;321.42;;;80.90;;
56343;SDS011;42245;42.058;24.700;2022-11-18T13:42:01;262.52;;;72.95;;
56343;SDS011;42245;42.058;24.700;2022-11-18T13:44:35;387.42;;;72.15;;
56343;SDS011;42245;42.058;24.700;2022-11-18T13:52:15;269.30;;;71.15;;
56343;SDS011;42245;42.058;24.700;2022-11-18T13:54:52;370.23;;;73.55;;
56343;SDS011;42245;42.058;24.700;2022-11-18T13:57:20;567.10;;;75.53;;
56343;SDS011;42245;42.058;24.700;2022-11-18T13:59:47;569.55;;;75.47;;
56343;SDS011;42245;42.058;24.700;2022-11-18T14:02:14;327.13;;;71.47;;
56343;SDS011;42245;42.058;24.700;2022-11-18T14:04:47;348.05;;;73.85;;
56343;SDS011;42245;42.058;24.700;2022-11-18T14:07:37;427.77;;;68.80;;
56343;SDS011;42245;42.058;24.700;2022-11-18T14:10:04;455.60;;;70.13;;
56343;SDS011;42245;42.058;24.700;2022-11-18T14:12:32;465.52;;;75.03;;
56343;SDS011;42245;42.058;24.700;2022-11-18T14:15:19;241.43;;;69.00;;
56343;SDS011;42245;42.058;24.700;2022-11-18T14:17:53;234.50;;;64.88;;
56343;SDS011;42245;42.058;24.700;2022-11-18T14:20:21;363.73;;;70.32;;
56343;SDS011;42245;42.058;24.700;2022-11-18T14:22:48;233.05;;;69.82;;
56343;SDS011;42245;42.058;24.700;2022-11-18T14:25:18;272.27;;;75.50;;
56343;SDS011;42245;42.058;24.700;2022-11-18T14:27:47;237.48;;;64.55;;
56343;SDS011;42245;42.058;24.700;2022-11-18T14:30:27;210.90;;;60.50;;
56343;SDS011;42245;42.058;24.700;2022-11-18T14:35:29;248.55;;;62.85;;
56343;SDS011;42245;42.058;24.700;2022-11-18T14:37:55;303.02;;;62.05;;
56343;SDS011;42245;42.058;24.700;2022-11-18T14:40:21;418.30;;;72.78;;
56343;SDS011;42245;42.058;24.700;2022-11-18T14:42:46;750.40;;;98.20;;
56343;SDS011;42245;42.058;24.700;2022-11-18T14:45:11;1069.43;;;98.38;;
56343;SDS011;42245;42.058;24.700;2022-11-18T14:47:37;420.65;;;95.03;;
56343;SDS011;42245;42.058;24.700;2022-11-18T14:50:07;418.42;;;87.63;;
56343;SDS011;42245;42.058;24.700;2022-11-18T14:52:36;478.17;;;81.55;;
56343;SDS011;42245;42.058;24.700;2022-11-18T14:55:02;596.58;;;103.03;;
56343;SDS011;42245;42.058;24.700;2022-11-18T14:57:28;655.55;;;103.53;;
56343;SDS011;42245;42.058;24.700;2022-11-18T14:59:54;608.50;;;104.82;;
56343;SDS011;42245;42.058;24.700;2022-11-18T15:02:19;591.85;;;144.80;;
56343;SDS011;42245;42.058;24.700;2022-11-18T15:04:44;485.38;;;82.70;;
56343;SDS011;42245;42.058;24.700;2022-11-18T15:07:11;797.60;;;143.25;;
56343;SDS011;42245;42.058;24.700;2022-11-18T15:09:38;550.78;;;91.20;;
56343;SDS011;42245;42.058;24.700;2022-11-18T15:12:04;512.60;;;82.13;;
56343;SDS011;42245;42.058;24.700;2022-11-18T15:14:29;743.63;;;134.57;;
56343;SDS011;42245;42.058;24.700;2022-11-18T15:16:55;403.17;;;134.80;;
56343;SDS011;42245;42.058;24.700;2022-11-18T15:19:20;526.58;;;88.40;;
56343;SDS011;42245;42.058;24.700;2022-11-18T15:21:46;429.65;;;104.32;;
56343;SDS011;42245;42.058;24.700;2022-11-18T15:24:11;478.73;;;82.15;;
56343;SDS011;42245;42.058;24.700;2022-11-18T15:26:39;305.27;;;83.13;;
56343;SDS011;42245;42.058;24.700;2022-11-18T15:29:17;502.50;;;82.55;;
56343;SDS011;42245;42.058;24.700;2022-11-18T15:31:44;539.35;;;83.25;;
56343;SDS011;42245;42.058;24.700;2022-11-18T15:34:10;365.77;;;83.57;;
56343;SDS011;42245;42.058;24.700;2022-11-18T15:36:35;304.27;;;90.05;;
56343;SDS011;42245;42.058;24.700;2022-11-18T15:39:01;594.08;;;95.13;;
56343;SDS011;42245;42.058;24.700;2022-11-18T15:41:28;280.55;;;87.50;;
56343;SDS011;42245;42.058;24.700;2022-11-18T15:43:54;531.47;;;86.00;;
56343;SDS011;42245;42.058;24.700;2022-11-18T15:46:21;591.80;;;119.05;;
56343;SDS011;42245;42.058;24.700;2022-11-18T15:48:54;248.40;;;76.93;;
56343;SDS011;42245;42.058;24.700;2022-11-18T15:51:20;214.15;;;72.68;;
56343;SDS011;42245;42.058;24.700;2022-11-18T15:53:46;169.07;;;66.00;;
56343;SDS011;42245;42.058;24.700;2022-11-18T15:58:40;142.32;;;61.83;;
56343;SDS011;42245;42.058;24.700;2022-11-18T16:01:05;249.55;;;73.90;;
56343;SDS011;42245;42.058;24.700;2022-11-18T16:03:32;227.23;;;72.57;;
56343;SDS011;42245;42.058;24.700;2022-11-18T16:05:58;225.55;;;73.00;;
56343;SDS011;42245;42.058;24.700;2022-11-18T16:08:23;729.17;;;77.25;;
56343;SDS011;42245;42.058;24.700;2022-11-18T16:10:53;407.45;;;78.88;;
56343;SDS011;42245;42.058;24.700;2022-11-18T16:13:38;337.48;;;74.38;;
56343;SDS011;42245;42.058;24.700;2022-11-18T16:16:03;226.25;;;70.82;;
56343;SDS011;42245;42.058;24.700;2022-11-18T16:18:29;444.98;;;79.00;;
56343;SDS011;42245;42.058;24.700;2022-11-18T16:20:58;666.60;;;81.70;;
56343;SDS011;42245;42.058;24.700;2022-11-18T16:23:24;291.88;;;74.65;;
56343;SDS011;42245;42.058;24.700;2022-11-18T16:25:49;462.17;;;75.35;;
56343;SDS011;42245;42.058;24.700;2022-11-18T16:28:15;385.80;;;74.25;;
56343;SDS011;42245;42.058;24.700;2022-11-18T16:30:46;518.90;;;74.05;;
56343;SDS011;42245;42.058;24.700;2022-11-18T16:33:30;587.30;;;73.03;;
56343;SDS011;42245;42.058;24.700;2022-11-18T16:35:55;464.17;;;73.03;;
56343;SDS011;42245;42.058;24.700;2022-11-18T16:38:21;223.43;;;70.22;;
56343;SDS011;42245;42.058;24.700;2022-11-18T16:40:53;707.80;;;81.15;;
56343;SDS011;42245;42.058;24.700;2022-11-18T16:43:19;527.83;;;65.30;;
56343;SDS011;42245;42.058;24.700;2022-11-18T16:45:50;535.22;;;72.50;;
56343;SDS011;42245;42.058;24.700;2022-11-18T16:48:17;354.67;;;68.57;;
56343;SDS011;42245;42.058;24.700;2022-11-18T16:50:42;388.67;;;65.13;;
56343;SDS011;42245;42.058;24.700;2022-11-18T16:53:08;579.60;;;71.03;;
56343;SDS011;42245;42.058;24.700;2022-11-18T16:55:33;757.42;;;74.75;;
56343;SDS011;42245;42.058;24.700;2022-11-18T16:57:58;659.50;;;77.07;;
56343;SDS011;42245;42.058;24.700;2022-11-18T17:00:24;546.30;;;73.95;;
56343;SDS011;42245;42.058;24.700;2022-11-18T17:02:49;863.67;;;87.85;;
56343;SDS011;42245;42.058;24.700;2022-11-18T17:05:15;429.48;;;64.47;;
56343;SDS011;42245;42.058;24.700;2022-11-18T17:07:40;374.15;;;64.10;;
56343;SDS011;42245;42.058;24.700;2022-11-18T17:10:05;244.15;;;58.53;;
56343;SDS011;42245;42.058;24.700;2022-11-18T17:12:43;239.60;;;60.80;;
56343;SDS011;42245;42.058;24.700;2022-11-18T17:15:12;454.40;;;59.20;;
56343;SDS011;42245;42.058;24.700;2022-11-18T17:17:38;180.07;;;56.17;;
56343;SDS011;42245;42.058;24.700;2022-11-18T17:20:04;201.65;;;54.03;;
56343;SDS011;42245;42.058;24.700;2022-11-18T17:22:30;192.15;;;58.53;;
56343;SDS011;42245;42.058;24.700;2022-11-18T17:24:55;219.77;;;61.22;;
56343;SDS011;42245;42.058;24.700;2022-11-18T17:27:20;164.05;;;57.67;;
56343;SDS011;42245;42.058;24.700;2022-11-18T17:29:46;164.38;;;57.28;;
56343;SDS011;42245;42.058;24.700;2022-11-18T17:32:14;362.80;;;73.35;;
56343;SDS011;42245;42.058;24.700;2022-11-18T17:34:40;400.08;;;73.22;;
56343;SDS011;42245;42.058;24.700;2022-11-18T17:37:05;701.35;;;87.40;;
56343;SDS011;42245;42.058;24.700;2022-11-18T17:39:31;375.73;;;74.57;;
56343;SDS011;42245;42.058;24.700;2022-11-18T17:41:56;708.85;;;90.75;;
56343;SDS011;42245;42.058;24.700;2022-11-18T17:44:41;578.22;;;73.00;;
56343;SDS011;42245;42.058;24.700;2022-11-18T17:47:07;409.42;;;70.80;;
56343;SDS011;42245;42.058;24.700;2022-11-18T17:49:32;264.83;;;65.28;;
56343;SDS011;42245;42.058;24.700;2022-11-18T17:51:58;255.85;;;66.97;;
56343;SDS011;42245;42.058;24.700;2022-11-18T17:54:23;230.32;;;74.70;;
56343;SDS011;42245;42.058;24.700;2022-11-18T17:56:49;246.63;;;74.13;;
56343;SDS011;42245;42.058;24.700;2022-11-18T17:59:17;762.78;;;86.88;;
56343;SDS011;42245;42.058;24.700;2022-11-18T18:01:43;326.45;;;65.15;;
56343;SDS011;42245;42.058;24.700;2022-11-18T18:04:09;213.07;;;66.78;;
56343;SDS011;42245;42.058;24.700;2022-11-18T18:06:35;290.45;;;64.90;;
56343;SDS011;42245;42.058;24.700;2022-11-18T18:09:01;308.90;;;65.85;;
56343;SDS011;42245;42.058;24.700;2022-11-18T18:11:26;252.23;;;72.13;;
56343;SDS011;42245;42.058;24.700;2022-11-18T18:13:52;444.95;;;72.43;;
56343;SDS011;42245;42.058;24.700;2022-11-18T18:16:36;297.73;;;63.03;;
56343;SDS011;42245;42.058;24.700;2022-11-18T18:19:06;203.25;;;60.78;;
56343;SDS011;42245;42.058;24.700;2022-11-18T18:21:32;160.95;;;55.03;;
56343;SDS011;42245;42.058;24.700;2022-11-18T18:23:57;133.75;;;48.65;;
56343;SDS011;42245;42.058;24.700;2022-11-18T18:26:23;120.28;;;47.15;;
56343;SDS011;42245;42.058;24.700;2022-11-18T18:28:49;112.90;;;43.80;;
56343;SDS011;42245;42.058;24.700;2022-11-18T18:31:15;96.80;;;42.10;;
56343;SDS011;42245;42.058;24.700;2022-11-18T18:33:41;122.68;;;49.28;;
56343;SDS011;42245;42.058;24.700;2022-11-18T18:36:08;124.05;;;47.83;;
56343;SDS011;42245;42.058;24.700;2022-11-18T18:38:36;150.15;;;54.85;;
56343;SDS011;42245;42.058;24.700;2022-11-18T18:41:06;160.80;;;66.72;;
56343;SDS011;42245;42.058;24.700;2022-11-18T18:43:33;153.27;;;56.47;;
56343;SDS011;42245;42.058;24.700;2022-11-18T18:46:03;176.95;;;55.25;;
56343;SDS011;42245;42.058;24.700;2022-11-18T18:48:59;378.83;;;60.40;;
56343;SDS011;42245;42.058;24.700;2022-11-18T18:51:26;355.58;;;67.32;;
56343;SDS011;42245;42.058;24.700;2022-11-18T18:53:52;202.00;;;60.90;;
56343;SDS011;42245;42.058;24.700;2022-11-18T18:56:19;156.48;;;56.38;;
56343;SDS011;42245;42.058;24.700;2022-11-18T18:58:44;274.58;;;57.40;;
56343;SDS011;42245;42.058;24.700;2022-11-18T19:01:13;587.22;;;65.13;;
56343;SDS011;42245;42.058;24.700;2022-11-18T19:03:41;375.50;;;61.95;;
56343;SDS011;42245;42.058;24.700;2022-11-18T19:09:08;474.63;;;56.85;;
56343;SDS011;42245;42.058;24.700;2022-11-18T19:11:35;365.05;;;56.67;;
56343;SDS011;42245;42.058;24.700;2022-11-18T19:14:20;645.05;;;59.80;;
56343;SDS011;42245;42.058;24.700;2022-11-18T19:16:46;479.45;;;59.60;;
56343;SDS011;42245;42.058;24.700;2022-11-18T19:19:12;579.90;;;63.30;;
56343;SDS011;42245;42.058;24.700;2022-11-18T19:21:39;235.82;;;55.95;;
56343;SDS011;42245;42.058;24.700;2022-11-18T19:24:05;274.05;;;58.72;;
56343;SDS011;42245;42.058;24.700;2022-11-18T19:26:32;328.88;;;57.53;;
56343;SDS011;42245;42.058;24.700;2022-11-18T19:28:58;735.67;;;65.18;;
56343;SDS011;42245;42.058;24.700;2022-11-18T19:31:24;254.05;;;54.88;;
56343;SDS011;42245;42.058;24.700;2022-11-18T19:33:49;441.27;;;56.28;;
56343;SDS011;42245;42.058;24.700;2022-11-18T19:36:15;348.35;;;61.45;;
56343;SDS011;42245;42.058;24.700;2022-11-18T19:38:40;474.20;;;58.10;;
56343;SDS011;42245;42.058;24.700;2022-11-18T19:41:11;320.90;;;57.05;;
56343;SDS011;42245;42.058;24.700;2022-11-18T19:43:37;323.05;;;54.72;;
56343;SDS011;42245;42.058;24.700;2022-11-18T19:46:03;257.90;;;51.55;;
56343;SDS011;42245;42.058;24.700;2022-11-18T19:48:28;317.75;;;49.50;;
56343;SDS011;42245;42.058;24.700;2022-11-18T19:51:05;411.13;;;57.47;;
56343;SDS011;42245;42.058;24.700;2022-11-18T19:53:33;210.98;;;46.80;;
56343;SDS011;42245;42.058;24.700;2022-11-18T19:56:00;91.50;;;36.00;;
56343;SDS011;42245;42.058;24.700;2022-11-18T19:58:33;85.50;;;35.15;;
56343;SDS011;42245;42.058;24.700;2022-11-18T20:01:13;75.05;;;34.95;;
56343;SDS011;42245;42.058;24.700;2022-11-18T20:03:43;106.00;;;39.90;;
56343;SDS011;42245;42.058;24.700;2022-11-18T20:06:10;251.52;;;51.33;;
56343;SDS011;42245;42.058;24.700;2022-11-18T20:08:36;1063.78;;;78.43;;
56343;SDS011;42245;42.058;24.700;2022-11-18T20:11:04;442.73;;;63.65;;
56343;SDS011;42245;42.058;24.700;2022-11-18T20:13:32;480.73;;;62.85;;
56343;SDS011;42245;42.058;24.700;2022-11-18T20:15:58;481.83;;;64.93;;
56343;SDS011;42245;42.058;24.700;2022-11-18T20:18:30;302.50;;;63.05;;